sensor_id;sensor_type;location;lat;lon;timestamp;P1;durP1;ratioP1;P2;durP2;ratioP2
52188;SDS011;38162;45.926;13.608;2022-08-01T00:00:24;6.97;;;2.40;;
52188;SDS011;38162;45.926;13.608;2022-08-01T00:02:49;4.75;;;2.47;;
52188;SDS011;38162;45.926;13.608;2022-08-01T00:05:15;6.97;;;2.22;;
52188;SDS011;38162;45.926;13.608;2022-08-01T00:07:41;4.25;;;2.38;;
52188;SDS011;38162;45.926;13.608;2022-08-01T00:10:08;5.45;;;2.55;;
52188;SDS011;38162;45.926;13.608;2022-08-01T00:12:39;5.30;;;2.20;;
52188;SDS011;38162;45.926;13.608;2022-08-01T00:15:06;3.42;;;2.15;;
52188;SDS011;38162;45.926;13.608;2022-08-01T00:17:33;4.07;;;1.92;;
52188;SDS011;38162;45.926;13.608;2022-08-01T00:19:59;7.15;;;2.50;;
52188;SDS011;38162;45.926;13.608;2022-08-01T00:22:25;3.47;;;2.00;;
52188;SDS011;38162;45.926;13.608;2022-08-01T00:24:50;4.20;;;2.42;;
52188;SDS011;38162;45.926;13.608;2022-08-01T00:27:16;6.78;;;2.50;;
52188;SDS011;38162;45.926;13.608;2022-08-01T00:29:44;4.20;;;2.40;;
52188;SDS011;38162;45.926;13.608;2022-08-01T00:32:10;5.05;;;2.78;;
52188;SDS011;38162;45.926;13.608;2022-08-01T00:34:35;5.03;;;2.22;;
52188;SDS011;38162;45.926;13.608;2022-08-01T00:37:01;7.45;;;2.20;;
52188;SDS011;38162;45.926;13.608;2022-08-01T00:39:27;5.90;;;2.63;;
52188;SDS011;38162;45.926;13.608;2022-08-01T00:41:53;5.45;;;2.55;;
52188;SDS011;38162;45.926;13.608;2022-08-01T00:44:18;4.53;;;2.50;;
52188;SDS011;38162;45.926;13.608;2022-08-01T00:46:46;6.03;;;2.50;;
52188;SDS011;38162;45.926;13.608;2022-08-01T00:49:12;3.53;;;2.35;;
52188;SDS011;38162;45.926;13.608;2022-08-01T00:51:38;4.68;;;2.50;;
52188;SDS011;38162;45.926;13.608;2022-08-01T00:54:04;4.20;;;2.38;;
52188;SDS011;38162;45.926;13.608;2022-08-01T00:56:29;5.97;;;2.50;;
52188;SDS011;38162;45.926;13.608;2022-08-01T00:58:56;7.18;;;2.95;;
52188;SDS011;38162;45.926;13.608;2022-08-01T01:01:21;3.65;;;2.38;;
52188;SDS011;38162;45.926;13.608;2022-08-01T01:03:48;7.63;;;2.53;;
52188;SDS011;38162;45.926;13.608;2022-08-01T01:09:06;3.40;;;2.00;;
52188;SDS011;38162;45.926;13.608;2022-08-01T01:14:41;3.70;;;2.20;;
52188;SDS011;38162;45.926;13.608;2022-08-01T01:17:25;2.92;;;2.50;;
52188;SDS011;38162;45.926;13.608;2022-08-01T01:19:57;3.38;;;2.38;;
52188;SDS011;38162;45.926;13.608;2022-08-01T01:25:26;4.72;;;2.42;;
52188;SDS011;38162;45.926;13.608;2022-08-01T01:28:15;3.38;;;2.35;;
52188;SDS011;38162;45.926;13.608;2022-08-01T01:30:43;5.82;;;2.08;;
52188;SDS011;38162;45.926;13.608;2022-08-01T01:33:11;6.78;;;2.20;;
52188;SDS011;38162;45.926;13.608;2022-08-01T01:35:41;6.28;;;2.20;;
52188;SDS011;38162;45.926;13.608;2022-08-01T01:38:14;5.63;;;2.42;;
52188;SDS011;38162;45.926;13.608;2022-08-01T01:40:51;7.43;;;2.22;;
52188;SDS011;38162;45.926;13.608;2022-08-01T01:43:18;3.70;;;2.20;;
52188;SDS011;38162;45.926;13.608;2022-08-01T01:45:45;2.65;;;1.90;;
52188;SDS011;38162;45.926;13.608;2022-08-01T01:48:13;6.38;;;1.98;;
52188;SDS011;38162;45.926;13.608;2022-08-01T01:50:42;3.65;;;2.08;;
52188;SDS011;38162;45.926;13.608;2022-08-01T01:53:10;3.47;;;2.08;;
52188;SDS011;38162;45.926;13.608;2022-08-01T01:55:38;2.45;;;1.85;;
52188;SDS011;38162;45.926;13.608;2022-08-01T01:58:06;3.97;;;1.88;;
52188;SDS011;38162;45.926;13.608;2022-08-01T02:00:34;5.95;;;2.28;;
52188;SDS011;38162;45.926;13.608;2022-08-01T02:03:02;9.45;;;2.30;;
52188;SDS011;38162;45.926;13.608;2022-08-01T02:05:30;4.57;;;2.15;;
52188;SDS011;38162;45.926;13.608;2022-08-01T02:07:59;4.65;;;1.85;;
52188;SDS011;38162;45.926;13.608;2022-08-01T02:10:26;4.32;;;2.20;;
52188;SDS011;38162;45.926;13.608;2022-08-01T02:12:54;6.13;;;2.50;;
52188;SDS011;38162;45.926;13.608;2022-08-01T02:15:22;6.35;;;2.15;;
52188;SDS011;38162;45.926;13.608;2022-08-01T02:17:49;3.75;;;2.28;;
52188;SDS011;38162;45.926;13.608;2022-08-01T02:20:16;6.97;;;2.33;;
52188;SDS011;38162;45.926;13.608;2022-08-01T02:22:42;5.25;;;2.45;;
52188;SDS011;38162;45.926;13.608;2022-08-01T02:28:06;3.28;;;2.03;;
52188;SDS011;38162;45.926;13.608;2022-08-01T02:30:35;3.08;;;2.20;;
52188;SDS011;38162;45.926;13.608;2022-08-01T02:33:23;6.53;;;2.47;;
52188;SDS011;38162;45.926;13.608;2022-08-01T02:35:53;2.92;;;1.90;;
52188;SDS011;38162;45.926;13.608;2022-08-01T02:38:23;5.90;;;1.80;;
52188;SDS011;38162;45.926;13.608;2022-08-01T02:40:52;2.22;;;1.88;;
52188;SDS011;38162;45.926;13.608;2022-08-01T02:43:23;3.88;;;2.00;;
52188;SDS011;38162;45.926;13.608;2022-08-01T02:45:53;4.80;;;2.10;;
52188;SDS011;38162;45.926;13.608;2022-08-01T02:48:25;3.53;;;2.35;;
52188;SDS011;38162;45.926;13.608;2022-08-01T02:50:53;7.85;;;1.98;;
52188;SDS011;38162;45.926;13.608;2022-08-01T02:53:21;6.05;;;2.00;;
52188;SDS011;38162;45.926;13.608;2022-08-01T02:55:49;3.25;;;2.38;;
52188;SDS011;38162;45.926;13.608;2022-08-01T02:58:17;4.38;;;2.17;;
52188;SDS011;38162;45.926;13.608;2022-08-01T03:00:44;3.78;;;1.77;;
52188;SDS011;38162;45.926;13.608;2022-08-01T03:03:12;5.63;;;2.13;;
52188;SDS011;38162;45.926;13.608;2022-08-01T03:05:39;4.93;;;2.00;;
52188;SDS011;38162;45.926;13.608;2022-08-01T03:08:06;2.40;;;1.80;;
52188;SDS011;38162;45.926;13.608;2022-08-01T03:10:33;7.82;;;2.30;;
52188;SDS011;38162;45.926;13.608;2022-08-01T03:13:02;7.30;;;1.77;;
52188;SDS011;38162;45.926;13.608;2022-08-01T03:15:31;5.20;;;2.22;;
52188;SDS011;38162;45.926;13.608;2022-08-01T03:17:58;7.03;;;1.95;;
52188;SDS011;38162;45.926;13.608;2022-08-01T03:20:26;4.97;;;2.30;;
52188;SDS011;38162;45.926;13.608;2022-08-01T03:22:55;3.38;;;2.03;;
52188;SDS011;38162;45.926;13.608;2022-08-01T03:25:24;6.65;;;2.20;;
52188;SDS011;38162;45.926;13.608;2022-08-01T03:27:54;6.38;;;2.30;;
52188;SDS011;38162;45.926;13.608;2022-08-01T03:30:22;4.93;;;2.38;;
52188;SDS011;38162;45.926;13.608;2022-08-01T03:32:49;8.73;;;2.30;;
52188;SDS011;38162;45.926;13.608;2022-08-01T03:35:16;6.63;;;2.33;;
52188;SDS011;38162;45.926;13.608;2022-08-01T03:40:23;7.78;;;2.45;;
52188;SDS011;38162;45.926;13.608;2022-08-01T03:42:58;6.53;;;2.70;;
52188;SDS011;38162;45.926;13.608;2022-08-01T03:45:29;3.25;;;2.10;;
52188;SDS011;38162;45.926;13.608;2022-08-01T03:48:00;4.00;;;2.50;;
52188;SDS011;38162;45.926;13.608;2022-08-01T03:50:28;3.22;;;2.15;;
52188;SDS011;38162;45.926;13.608;2022-08-01T03:52:59;4.63;;;2.30;;
52188;SDS011;38162;45.926;13.608;2022-08-01T03:55:27;3.35;;;2.25;;
52188;SDS011;38162;45.926;13.608;2022-08-01T03:57:54;6.65;;;2.28;;
52188;SDS011;38162;45.926;13.608;2022-08-01T04:00:21;6.72;;;2.33;;
52188;SDS011;38162;45.926;13.608;2022-08-01T04:02:48;5.82;;;2.08;;
52188;SDS011;38162;45.926;13.608;2022-08-01T04:05:15;4.10;;;2.10;;
52188;SDS011;38162;45.926;13.608;2022-08-01T04:07:45;7.28;;;2.10;;
52188;SDS011;38162;45.926;13.608;2022-08-01T04:10:12;5.35;;;2.00;;
52188;SDS011;38162;45.926;13.608;2022-08-01T04:12:38;5.80;;;2.20;;
52188;SDS011;38162;45.926;13.608;2022-08-01T04:15:04;4.00;;;2.00;;
52188;SDS011;38162;45.926;13.608;2022-08-01T04:17:31;3.58;;;2.00;;
52188;SDS011;38162;45.926;13.608;2022-08-01T04:19:56;5.63;;;2.30;;
52188;SDS011;38162;45.926;13.608;2022-08-01T04:22:22;4.28;;;1.92;;
52188;SDS011;38162;45.926;13.608;2022-08-01T04:24:49;3.42;;;1.90;;
52188;SDS011;38162;45.926;13.608;2022-08-01T04:27:20;6.70;;;1.98;;
52188;SDS011;38162;45.926;13.608;2022-08-01T04:29:53;5.07;;;2.00;;
52188;SDS011;38162;45.926;13.608;2022-08-01T04:32:22;8.85;;;2.67;;
52188;SDS011;38162;45.926;13.608;2022-08-01T04:34:50;7.05;;;1.95;;
52188;SDS011;38162;45.926;13.608;2022-08-01T04:37:17;4.25;;;2.05;;
52188;SDS011;38162;45.926;13.608;2022-08-01T04:39:44;4.43;;;2.10;;
52188;SDS011;38162;45.926;13.608;2022-08-01T04:42:11;4.90;;;2.08;;
52188;SDS011;38162;45.926;13.608;2022-08-01T04:44:40;5.15;;;1.92;;
52188;SDS011;38162;45.926;13.608;2022-08-01T04:47:06;4.55;;;1.83;;
52188;SDS011;38162;45.926;13.608;2022-08-01T04:49:34;5.75;;;2.10;;
52188;SDS011;38162;45.926;13.608;2022-08-01T04:52:00;2.63;;;1.70;;
52188;SDS011;38162;45.926;13.608;2022-08-01T04:54:26;6.80;;;2.35;;
52188;SDS011;38162;45.926;13.608;2022-08-01T04:56:53;4.82;;;1.95;;
52188;SDS011;38162;45.926;13.608;2022-08-01T04:59:23;6.13;;;2.30;;
52188;SDS011;38162;45.926;13.608;2022-08-01T05:02:07;7.65;;;2.00;;
52188;SDS011;38162;45.926;13.608;2022-08-01T05:04:38;2.25;;;1.85;;
52188;SDS011;38162;45.926;13.608;2022-08-01T05:07:05;5.38;;;2.47;;
52188;SDS011;38162;45.926;13.608;2022-08-01T05:09:31;3.40;;;1.88;;
52188;SDS011;38162;45.926;13.608;2022-08-01T05:11:58;7.78;;;1.77;;
52188;SDS011;38162;45.926;13.608;2022-08-01T05:14:27;5.78;;;1.85;;
52188;SDS011;38162;45.926;13.608;2022-08-01T05:16:53;4.43;;;1.80;;
52188;SDS011;38162;45.926;13.608;2022-08-01T05:19:19;4.53;;;1.70;;
52188;SDS011;38162;45.926;13.608;2022-08-01T05:21:46;5.40;;;1.98;;
52188;SDS011;38162;45.926;13.608;2022-08-01T05:24:12;5.75;;;2.00;;
52188;SDS011;38162;45.926;13.608;2022-08-01T05:26:40;3.97;;;2.03;;
52188;SDS011;38162;45.926;13.608;2022-08-01T05:29:06;7.32;;;1.65;;
52188;SDS011;38162;45.926;13.608;2022-08-01T05:31:32;2.85;;;1.98;;
52188;SDS011;38162;45.926;13.608;2022-08-01T05:33:59;3.47;;;1.80;;
52188;SDS011;38162;45.926;13.608;2022-08-01T05:36:26;3.15;;;1.48;;
52188;SDS011;38162;45.926;13.608;2022-08-01T05:38:52;5.55;;;1.60;;
52188;SDS011;38162;45.926;13.608;2022-08-01T05:41:17;6.15;;;1.60;;
52188;SDS011;38162;45.926;13.608;2022-08-01T05:43:43;2.78;;;1.50;;
52188;SDS011;38162;45.926;13.608;2022-08-01T05:46:09;6.20;;;1.90;;
52188;SDS011;38162;45.926;13.608;2022-08-01T05:48:34;4.38;;;1.90;;
52188;SDS011;38162;45.926;13.608;2022-08-01T05:51:00;3.60;;;1.60;;
52188;SDS011;38162;45.926;13.608;2022-08-01T05:53:26;4.93;;;1.80;;
52188;SDS011;38162;45.926;13.608;2022-08-01T05:55:52;2.53;;;1.90;;
52188;SDS011;38162;45.926;13.608;2022-08-01T05:58:17;3.58;;;1.50;;
52188;SDS011;38162;45.926;13.608;2022-08-01T06:00:43;3.80;;;1.98;;
52188;SDS011;38162;45.926;13.608;2022-08-01T06:03:09;5.30;;;1.80;;
52188;SDS011;38162;45.926;13.608;2022-08-01T06:05:36;5.53;;;1.92;;
52188;SDS011;38162;45.926;13.608;2022-08-01T06:08:02;3.45;;;1.90;;
52188;SDS011;38162;45.926;13.608;2022-08-01T06:10:28;6.43;;;1.52;;
52188;SDS011;38162;45.926;13.608;2022-08-01T06:12:54;2.58;;;1.58;;
52188;SDS011;38162;45.926;13.608;2022-08-01T06:15:20;3.10;;;1.52;;
52188;SDS011;38162;45.926;13.608;2022-08-01T06:17:46;3.35;;;1.63;;
52188;SDS011;38162;45.926;13.608;2022-08-01T06:20:11;4.05;;;1.40;;
52188;SDS011;38162;45.926;13.608;2022-08-01T06:22:37;4.88;;;1.73;;
52188;SDS011;38162;45.926;13.608;2022-08-01T06:25:03;2.65;;;1.30;;
52188;SDS011;38162;45.926;13.608;2022-08-01T06:27:29;4.32;;;1.55;;
52188;SDS011;38162;45.926;13.608;2022-08-01T06:29:55;10.20;;;1.92;;
52188;SDS011;38162;45.926;13.608;2022-08-01T06:32:21;4.72;;;1.88;;
52188;SDS011;38162;45.926;13.608;2022-08-01T06:34:47;6.50;;;2.03;;
52188;SDS011;38162;45.926;13.608;2022-08-01T06:37:13;5.93;;;1.65;;
52188;SDS011;38162;45.926;13.608;2022-08-01T06:39:39;5.10;;;1.45;;
52188;SDS011;38162;45.926;13.608;2022-08-01T06:42:05;8.43;;;1.70;;
52188;SDS011;38162;45.926;13.608;2022-08-01T06:44:31;6.55;;;1.90;;
52188;SDS011;38162;45.926;13.608;2022-08-01T06:46:56;5.03;;;1.60;;
52188;SDS011;38162;45.926;13.608;2022-08-01T06:49:25;3.13;;;1.88;;
52188;SDS011;38162;45.926;13.608;2022-08-01T06:51:51;8.60;;;1.58;;
52188;SDS011;38162;45.926;13.608;2022-08-01T06:54:16;5.35;;;1.52;;
52188;SDS011;38162;45.926;13.608;2022-08-01T06:56:42;3.83;;;1.60;;
52188;SDS011;38162;45.926;13.608;2022-08-01T06:59:08;6.47;;;1.40;;
52188;SDS011;38162;45.926;13.608;2022-08-01T07:01:34;3.30;;;1.50;;
52188;SDS011;38162;45.926;13.608;2022-08-01T07:04:17;3.72;;;1.33;;
52188;SDS011;38162;45.926;13.608;2022-08-01T07:06:43;3.03;;;1.30;;
52188;SDS011;38162;45.926;13.608;2022-08-01T07:09:08;2.70;;;1.48;;
52188;SDS011;38162;45.926;13.608;2022-08-01T07:11:34;3.95;;;1.50;;
52188;SDS011;38162;45.926;13.608;2022-08-01T07:14:00;4.45;;;1.45;;
52188;SDS011;38162;45.926;13.608;2022-08-01T07:16:25;5.20;;;1.45;;
52188;SDS011;38162;45.926;13.608;2022-08-01T07:18:51;4.97;;;1.58;;
52188;SDS011;38162;45.926;13.608;2022-08-01T07:21:17;1.48;;;1.30;;
52188;SDS011;38162;45.926;13.608;2022-08-01T07:23:42;2.47;;;1.30;;
52188;SDS011;38162;45.926;13.608;2022-08-01T07:26:08;2.85;;;1.00;;
52188;SDS011;38162;45.926;13.608;2022-08-01T07:28:34;3.70;;;1.23;;
52188;SDS011;38162;45.926;13.608;2022-08-01T07:30:59;2.88;;;1.30;;
52188;SDS011;38162;45.926;13.608;2022-08-01T07:33:25;2.05;;;1.20;;
52188;SDS011;38162;45.926;13.608;2022-08-01T07:35:51;7.63;;;1.65;;
52188;SDS011;38162;45.926;13.608;2022-08-01T07:38:16;1.13;;;1.00;;
52188;SDS011;38162;45.926;13.608;2022-08-01T07:40:43;2.33;;;1.30;;
52188;SDS011;38162;45.926;13.608;2022-08-01T07:43:09;2.90;;;1.60;;
52188;SDS011;38162;45.926;13.608;2022-08-01T07:45:34;5.35;;;1.42;;
52188;SDS011;38162;45.926;13.608;2022-08-01T07:48:03;3.42;;;1.58;;
52188;SDS011;38162;45.926;13.608;2022-08-01T07:50:30;2.42;;;1.55;;
52188;SDS011;38162;45.926;13.608;2022-08-01T07:52:55;1.55;;;1.20;;
52188;SDS011;38162;45.926;13.608;2022-08-01T07:55:21;3.42;;;1.20;;
52188;SDS011;38162;45.926;13.608;2022-08-01T07:57:47;3.90;;;1.33;;
52188;SDS011;38162;45.926;13.608;2022-08-01T08:00:12;3.03;;;1.30;;
52188;SDS011;38162;45.926;13.608;2022-08-01T08:02:39;1.80;;;1.20;;
52188;SDS011;38162;45.926;13.608;2022-08-01T08:05:04;3.88;;;1.10;;
52188;SDS011;38162;45.926;13.608;2022-08-01T08:07:32;2.08;;;1.17;;
52188;SDS011;38162;45.926;13.608;2022-08-01T08:10:00;4.32;;;1.30;;
52188;SDS011;38162;45.926;13.608;2022-08-01T08:12:26;3.65;;;1.10;;
52188;SDS011;38162;45.926;13.608;2022-08-01T08:14:52;1.70;;;1.02;;
52188;SDS011;38162;45.926;13.608;2022-08-01T08:17:17;3.88;;;1.20;;
52188;SDS011;38162;45.926;13.608;2022-08-01T08:19:43;3.25;;;1.13;;
52188;SDS011;38162;45.926;13.608;2022-08-01T08:22:09;2.47;;;1.23;;
52188;SDS011;38162;45.926;13.608;2022-08-01T08:24:35;5.30;;;1.20;;
52188;SDS011;38162;45.926;13.608;2022-08-01T08:27:02;1.92;;;1.10;;
52188;SDS011;38162;45.926;13.608;2022-08-01T08:29:29;2.50;;;1.20;;
52188;SDS011;38162;45.926;13.608;2022-08-01T08:31:57;4.38;;;1.38;;
52188;SDS011;38162;45.926;13.608;2022-08-01T08:34:24;2.47;;;1.05;;
52188;SDS011;38162;45.926;13.608;2022-08-01T08:36:50;1.92;;;1.27;;
52188;SDS011;38162;45.926;13.608;2022-08-01T08:39:17;2.40;;;1.15;;
52188;SDS011;38162;45.926;13.608;2022-08-01T08:41:42;2.08;;;1.30;;
52188;SDS011;38162;45.926;13.608;2022-08-01T08:44:08;4.85;;;1.13;;
52188;SDS011;38162;45.926;13.608;2022-08-01T08:46:40;3.53;;;1.08;;
52188;SDS011;38162;45.926;13.608;2022-08-01T08:49:08;3.42;;;1.00;;
52188;SDS011;38162;45.926;13.608;2022-08-01T08:51:35;3.33;;;1.15;;
52188;SDS011;38162;45.926;13.608;2022-08-01T08:54:03;1.85;;;1.10;;
52188;SDS011;38162;45.926;13.608;2022-08-01T08:56:30;2.00;;;1.20;;
52188;SDS011;38162;45.926;13.608;2022-08-01T08:58:59;2.50;;;1.08;;
52188;SDS011;38162;45.926;13.608;2022-08-01T09:01:26;4.45;;;1.10;;
52188;SDS011;38162;45.926;13.608;2022-08-01T09:03:52;5.10;;;1.10;;
52188;SDS011;38162;45.926;13.608;2022-08-01T09:06:19;5.82;;;1.20;;
52188;SDS011;38162;45.926;13.608;2022-08-01T09:08:45;2.00;;;1.08;;
52188;SDS011;38162;45.926;13.608;2022-08-01T09:11:11;4.22;;;1.10;;
52188;SDS011;38162;45.926;13.608;2022-08-01T09:13:37;5.50;;;0.93;;
52188;SDS011;38162;45.926;13.608;2022-08-01T09:16:02;5.65;;;1.13;;
52188;SDS011;38162;45.926;13.608;2022-08-01T09:18:34;5.07;;;1.30;;
52188;SDS011;38162;45.926;13.608;2022-08-01T09:26:33;5.05;;;0.90;;
52188;SDS011;38162;45.926;13.608;2022-08-01T09:29:04;4.63;;;1.27;;
52188;SDS011;38162;45.926;13.608;2022-08-01T09:31:39;4.97;;;1.20;;
52188;SDS011;38162;45.926;13.608;2022-08-01T09:34:06;5.72;;;1.25;;
52188;SDS011;38162;45.926;13.608;2022-08-01T09:36:44;3.17;;;1.30;;
52188;SDS011;38162;45.926;13.608;2022-08-01T09:39:12;3.92;;;1.17;;
52188;SDS011;38162;45.926;13.608;2022-08-01T09:41:39;1.88;;;1.00;;
52188;SDS011;38162;45.926;13.608;2022-08-01T09:44:05;1.98;;;0.88;;
52188;SDS011;38162;45.926;13.608;2022-08-01T09:46:31;3.72;;;0.98;;
52188;SDS011;38162;45.926;13.608;2022-08-01T09:49:00;5.10;;;0.95;;
52188;SDS011;38162;45.926;13.608;2022-08-01T09:54:00;3.75;;;1.55;;
52188;SDS011;38162;45.926;13.608;2022-08-01T09:56:26;2.47;;;1.00;;
52188;SDS011;38162;45.926;13.608;2022-08-01T09:59:00;2.80;;;1.10;;
52188;SDS011;38162;45.926;13.608;2022-08-01T10:01:26;2.13;;;1.10;;
52188;SDS011;38162;45.926;13.608;2022-08-01T10:04:05;4.68;;;1.40;;
52188;SDS011;38162;45.926;13.608;2022-08-01T10:06:32;5.63;;;0.93;;
52188;SDS011;38162;45.926;13.608;2022-08-01T10:08:58;5.20;;;1.35;;
52188;SDS011;38162;45.926;13.608;2022-08-01T10:11:24;3.60;;;1.05;;
52188;SDS011;38162;45.926;13.608;2022-08-01T10:13:50;5.03;;;1.17;;
52188;SDS011;38162;45.926;13.608;2022-08-01T10:16:17;1.85;;;1.00;;
52188;SDS011;38162;45.926;13.608;2022-08-01T10:18:44;4.75;;;1.15;;
52188;SDS011;38162;45.926;13.608;2022-08-01T10:21:10;4.13;;;1.20;;
52188;SDS011;38162;45.926;13.608;2022-08-01T10:23:37;3.42;;;0.93;;
52188;SDS011;38162;45.926;13.608;2022-08-01T10:26:06;7.25;;;0.95;;
52188;SDS011;38162;45.926;13.608;2022-08-01T10:31:02;5.57;;;1.10;;
52188;SDS011;38162;45.926;13.608;2022-08-01T10:33:28;6.00;;;1.17;;
52188;SDS011;38162;45.926;13.608;2022-08-01T10:35:55;3.08;;;1.00;;
52188;SDS011;38162;45.926;13.608;2022-08-01T10:38:22;3.20;;;1.20;;
52188;SDS011;38162;45.926;13.608;2022-08-01T10:40:48;2.10;;;0.90;;
52188;SDS011;38162;45.926;13.608;2022-08-01T10:43:14;6.20;;;1.08;;
52188;SDS011;38162;45.926;13.608;2022-08-01T10:45:42;2.80;;;1.08;;
52188;SDS011;38162;45.926;13.608;2022-08-01T10:48:16;4.13;;;1.30;;
52188;SDS011;38162;45.926;13.608;2022-08-01T10:50:46;2.28;;;1.20;;
52188;SDS011;38162;45.926;13.608;2022-08-01T10:53:21;4.60;;;0.98;;
52188;SDS011;38162;45.926;13.608;2022-08-01T10:58:21;2.15;;;0.90;;
52188;SDS011;38162;45.926;13.608;2022-08-01T11:00:47;3.65;;;0.80;;
52188;SDS011;38162;45.926;13.608;2022-08-01T11:03:13;1.98;;;0.80;;
52188;SDS011;38162;45.926;13.608;2022-08-01T11:05:39;1.42;;;0.93;;
52188;SDS011;38162;45.926;13.608;2022-08-01T11:08:21;3.92;;;1.08;;
52188;SDS011;38162;45.926;13.608;2022-08-01T11:10:47;3.80;;;1.40;;
52188;SDS011;38162;45.926;13.608;2022-08-01T11:13:13;4.55;;;1.05;;
52188;SDS011;38162;45.926;13.608;2022-08-01T11:15:39;4.55;;;1.17;;
52188;SDS011;38162;45.926;13.608;2022-08-01T11:20:55;6.75;;;1.02;;
52188;SDS011;38162;45.926;13.608;2022-08-01T11:23:26;2.58;;;1.00;;
52188;SDS011;38162;45.926;13.608;2022-08-01T11:28:27;4.32;;;1.10;;
52188;SDS011;38162;45.926;13.608;2022-08-01T11:38:35;3.83;;;0.90;;
52188;SDS011;38162;45.926;13.608;2022-08-01T11:54:37;7.20;;;1.10;;
52188;SDS011;38162;45.926;13.608;2022-08-01T11:57:05;6.88;;;1.10;;
52188;SDS011;38162;45.926;13.608;2022-08-01T11:59:52;1.73;;;0.90;;
52188;SDS011;38162;45.926;13.608;2022-08-01T12:02:29;9.13;;;0.82;;
52188;SDS011;38162;45.926;13.608;2022-08-01T12:07:31;4.20;;;0.80;;
52188;SDS011;38162;45.926;13.608;2022-08-01T12:12:26;1.63;;;0.80;;
52188;SDS011;38162;45.926;13.608;2022-08-01T12:14:53;1.30;;;0.82;;
52188;SDS011;38162;45.926;13.608;2022-08-01T12:17:31;1.27;;;0.60;;
52188;SDS011;38162;45.926;13.608;2022-08-01T12:19:58;2.88;;;0.60;;
52188;SDS011;38162;45.926;13.608;2022-08-01T12:22:24;4.43;;;1.02;;
52188;SDS011;38162;45.926;13.608;2022-08-01T12:24:50;3.53;;;0.90;;
52188;SDS011;38162;45.926;13.608;2022-08-01T12:27:26;2.97;;;0.70;;
52188;SDS011;38162;45.926;13.608;2022-08-01T12:29:53;0.90;;;0.50;;
52188;SDS011;38162;45.926;13.608;2022-08-01T12:35:07;3.60;;;1.10;;
52188;SDS011;38162;45.926;13.608;2022-08-01T12:37:37;3.90;;;0.73;;
52188;SDS011;38162;45.926;13.608;2022-08-01T12:40:11;2.47;;;0.57;;
52188;SDS011;38162;45.926;13.608;2022-08-01T12:42:44;1.55;;;0.52;;
52188;SDS011;38162;45.926;13.608;2022-08-01T12:45:15;1.17;;;0.60;;
52188;SDS011;38162;45.926;13.608;2022-08-01T12:47:42;2.95;;;0.70;;
52188;SDS011;38162;45.926;13.608;2022-08-01T12:50:18;2.13;;;0.70;;
52188;SDS011;38162;45.926;13.608;2022-08-01T12:52:47;1.20;;;0.80;;
52188;SDS011;38162;45.926;13.608;2022-08-01T12:57:45;2.90;;;0.70;;
52188;SDS011;38162;45.926;13.608;2022-08-01T13:00:24;3.53;;;0.82;;
52188;SDS011;38162;45.926;13.608;2022-08-01T13:03:04;3.58;;;0.63;;
52188;SDS011;38162;45.926;13.608;2022-08-01T13:05:44;3.30;;;0.55;;
52188;SDS011;38162;45.926;13.608;2022-08-01T13:08:23;1.70;;;0.73;;
52188;SDS011;38162;45.926;13.608;2022-08-01T13:13:42;1.55;;;0.88;;
52188;SDS011;38162;45.926;13.608;2022-08-01T13:16:12;1.55;;;0.90;;
52188;SDS011;38162;45.926;13.608;2022-08-01T13:18:38;3.40;;;0.60;;
52188;SDS011;38162;45.926;13.608;2022-08-01T13:23:33;2.17;;;0.80;;
52188;SDS011;38162;45.926;13.608;2022-08-01T13:25:59;0.90;;;0.50;;
52188;SDS011;38162;45.926;13.608;2022-08-01T13:28:26;2.83;;;0.68;;
52188;SDS011;38162;45.926;13.608;2022-08-01T13:30:53;2.70;;;0.60;;
52188;SDS011;38162;45.926;13.608;2022-08-01T13:33:24;0.80;;;0.68;;
52188;SDS011;38162;45.926;13.608;2022-08-01T13:35:54;1.40;;;0.70;;
52188;SDS011;38162;45.926;13.608;2022-08-01T13:38:21;2.70;;;0.60;;
52188;SDS011;38162;45.926;13.608;2022-08-01T13:41:06;5.13;;;0.70;;
52188;SDS011;38162;45.926;13.608;2022-08-01T13:43:32;2.90;;;0.70;;
52188;SDS011;38162;45.926;13.608;2022-08-01T13:45:58;2.30;;;0.60;;
52188;SDS011;38162;45.926;13.608;2022-08-01T13:48:42;0.80;;;0.70;;
52188;SDS011;38162;45.926;13.608;2022-08-01T13:51:08;1.92;;;0.77;;
52188;SDS011;38162;45.926;13.608;2022-08-01T13:53:33;1.13;;;0.60;;
52188;SDS011;38162;45.926;13.608;2022-08-01T13:56:00;4.53;;;0.70;;
52188;SDS011;38162;45.926;13.608;2022-08-01T13:58:26;2.95;;;0.80;;
52188;SDS011;38162;45.926;13.608;2022-08-01T14:00:53;3.17;;;0.70;;
52188;SDS011;38162;45.926;13.608;2022-08-01T14:03:20;6.50;;;0.70;;
52188;SDS011;38162;45.926;13.608;2022-08-01T14:05:46;1.35;;;0.70;;
52188;SDS011;38162;45.926;13.608;2022-08-01T14:08:12;1.75;;;0.50;;
52188;SDS011;38162;45.926;13.608;2022-08-01T14:10:38;2.80;;;0.52;;
52188;SDS011;38162;45.926;13.608;2022-08-01T14:13:03;1.77;;;0.50;;
52188;SDS011;38162;45.926;13.608;2022-08-01T14:15:29;1.80;;;0.88;;
52188;SDS011;38162;45.926;13.608;2022-08-01T14:17:56;1.67;;;0.80;;
52188;SDS011;38162;45.926;13.608;2022-08-01T14:20:22;0.90;;;0.60;;
52188;SDS011;38162;45.926;13.608;2022-08-01T14:22:48;1.20;;;0.60;;
52188;SDS011;38162;45.926;13.608;2022-08-01T14:25:14;2.20;;;0.68;;
52188;SDS011;38162;45.926;13.608;2022-08-01T14:27:40;1.98;;;0.60;;
52188;SDS011;38162;45.926;13.608;2022-08-01T14:30:07;3.45;;;0.80;;
52188;SDS011;38162;45.926;13.608;2022-08-01T14:32:33;1.95;;;0.70;;
52188;SDS011;38162;45.926;13.608;2022-08-01T14:35:03;2.60;;;0.80;;
52188;SDS011;38162;45.926;13.608;2022-08-01T14:37:30;3.50;;;0.80;;
52188;SDS011;38162;45.926;13.608;2022-08-01T14:39:57;1.52;;;0.60;;
52188;SDS011;38162;45.926;13.608;2022-08-01T14:42:23;3.92;;;0.70;;
52188;SDS011;38162;45.926;13.608;2022-08-01T14:44:49;2.50;;;0.60;;
52188;SDS011;38162;45.926;13.608;2022-08-01T14:47:15;1.85;;;0.60;;
52188;SDS011;38162;45.926;13.608;2022-08-01T14:49:40;2.88;;;0.75;;
52188;SDS011;38162;45.926;13.608;2022-08-01T14:52:06;1.67;;;0.70;;
52188;SDS011;38162;45.926;13.608;2022-08-01T14:54:32;5.15;;;0.73;;
52188;SDS011;38162;45.926;13.608;2022-08-01T14:56:57;1.23;;;0.45;;
52188;SDS011;38162;45.926;13.608;2022-08-01T14:59:23;1.33;;;0.50;;
52188;SDS011;38162;45.926;13.608;2022-08-01T15:01:51;1.92;;;0.63;;
52188;SDS011;38162;45.926;13.608;2022-08-01T15:04:17;5.25;;;0.70;;
52188;SDS011;38162;45.926;13.608;2022-08-01T15:06:43;2.03;;;0.70;;
52188;SDS011;38162;45.926;13.608;2022-08-01T15:09:09;1.45;;;0.70;;
52188;SDS011;38162;45.926;13.608;2022-08-01T15:11:35;3.50;;;0.43;;
52188;SDS011;38162;45.926;13.608;2022-08-01T15:14:01;2.03;;;0.70;;
52188;SDS011;38162;45.926;13.608;2022-08-01T15:16:45;2.60;;;0.60;;
52188;SDS011;38162;45.926;13.608;2022-08-01T15:19:11;1.95;;;0.50;;
52188;SDS011;38162;45.926;13.608;2022-08-01T15:21:37;2.40;;;0.60;;
52188;SDS011;38162;45.926;13.608;2022-08-01T15:24:03;1.95;;;0.60;;
52188;SDS011;38162;45.926;13.608;2022-08-01T15:26:28;2.97;;;0.70;;
52188;SDS011;38162;45.926;13.608;2022-08-01T15:28:54;6.07;;;0.70;;
52188;SDS011;38162;45.926;13.608;2022-08-01T15:31:20;1.50;;;0.70;;
52188;SDS011;38162;45.926;13.608;2022-08-01T15:33:46;4.18;;;0.93;;
52188;SDS011;38162;45.926;13.608;2022-08-01T15:36:12;2.50;;;0.70;;
52188;SDS011;38162;45.926;13.608;2022-08-01T15:38:37;3.42;;;0.93;;
52188;SDS011;38162;45.926;13.608;2022-08-01T15:41:03;1.00;;;0.70;;
52188;SDS011;38162;45.926;13.608;2022-08-01T15:43:29;1.88;;;0.70;;
52188;SDS011;38162;45.926;13.608;2022-08-01T15:45:54;1.55;;;0.70;;